createdAt,value
2022-12-03T10:02:41.943Z,2.70
2022-12-03T10:05:11.266Z,3.00
2022-12-03T10:07:40.276Z,3.70
2022-12-03T10:10:16.828Z,4.10
2022-12-03T10:12:46.018Z,4.40
2022-12-03T10:15:16.351Z,4.80
2022-12-03T10:17:47.582Z,5.40
2022-12-03T10:20:22.707Z,6.00
2022-12-03T10:22:51.665Z,6.40
2022-12-03T10:25:22.065Z,6.30
2022-12-03T10:27:59.646Z,6.20
2022-12-03T10:30:29.700Z,6.30
2022-12-03T10:33:02.855Z,6.40
2022-12-03T10:35:42.115Z,6.60
2022-12-03T10:38:22.555Z,6.90
2022-12-03T10:40:51.881Z,7.10
2022-12-03T10:43:25.028Z,7.70
2022-12-03T10:46:12.810Z,8.40
2022-12-03T10:48:41.778Z,8.80
2022-12-03T10:51:21.058Z,8.70
2022-12-03T10:53:51.300Z,8.70
2022-12-03T10:56:25.735Z,9.10
2022-12-03T10:58:54.964Z,9.20
2022-12-03T11:01:28.138Z,9.30
2022-12-03T11:04:04.586Z,9.40
2022-12-03T11:06:35.005Z,9.30
2022-12-03T11:09:09.022Z,9.00
2022-12-03T11:11:38.263Z,9.10
2022-12-03T11:14:07.383Z,8.90
2022-12-03T11:17:10.055Z,9.00
2022-12-03T11:19:47.976Z,9.60
2022-12-03T11:22:39.187Z,10.60
2022-12-03T11:25:46.250Z,11.10
2022-12-03T11:28:54.309Z,12.30
2022-12-03T11:31:37.714Z,13.10
2022-12-03T11:34:49.948Z,13.60
2022-12-03T11:37:28.894Z,13.10
2022-12-03T11:40:39.506Z,13.20
2022-12-03T11:43:12.140Z,12.80
2022-12-03T11:45:42.341Z,12.40
2022-12-03T11:48:16.812Z,12.40
2022-12-03T11:50:51.018Z,12.80
2022-12-03T11:53:24.488Z,12.10
2022-12-03T11:56:36.284Z,12.30
2022-12-03T11:59:14.575Z,12.50
2022-12-03T12:01:44.140Z,11.60
2022-12-03T12:04:38.143Z,10.70
2022-12-03T12:07:07.009Z,10.20
2022-12-03T12:09:57.581Z,9.50
2022-12-03T12:12:40.057Z,9.50
2022-12-03T12:15:51.546Z,9.60
2022-12-03T12:18:43.340Z,9.80
2022-12-03T12:21:41.487Z,9.90
2022-12-03T12:24:36.401Z,9.70
2022-12-03T12:27:21.383Z,9.30
2022-12-03T12:29:58.001Z,8.50
2022-12-03T12:32:29.769Z,8.50
2022-12-03T12:35:05.293Z,9.10
2022-12-03T12:37:59.089Z,9.80
2022-12-03T12:40:54.697Z,10.40
2022-12-03T12:43:32.066Z,10.50
2022-12-03T12:49:13.658Z,9.90
2022-12-03T12:52:02.333Z,9.40
2022-12-03T12:54:31.167Z,8.70
2022-12-03T12:57:03.011Z,8.40
2022-12-03T12:59:38.804Z,8.20
2022-12-03T13:02:36.342Z,8.00
2022-12-03T13:05:06.418Z,7.80
2022-12-03T13:07:37.543Z,7.70
2022-12-03T13:10:38.750Z,7.60
2022-12-03T13:14:17.664Z,7.60
2022-12-03T13:16:48.763Z,7.40
2022-12-03T13:19:26.259Z,7.50
2022-12-03T13:21:56.266Z,7.50
2022-12-03T13:24:45.974Z,7.50
2022-12-03T13:27:37.180Z,7.30
2022-12-03T13:30:22.977Z,7.10
2022-12-03T13:32:53.227Z,6.90
2022-12-03T13:35:57.806Z,6.70
2022-12-03T13:38:26.642Z,6.60
2022-12-03T13:42:17.041Z,6.40
2022-12-03T13:44:50.508Z,6.20
2022-12-03T13:47:31.457Z,6.00
2022-12-03T13:50:26.881Z,5.80
2022-12-03T13:53:17.185Z,5.70
2022-12-03T13:55:49.821Z,5.70
2022-12-03T13:58:18.737Z,5.70
2022-12-03T14:01:14.549Z,5.80
2022-12-03T14:04:08.209Z,5.80
2022-12-03T14:06:57.213Z,6.40
